Portada
METAR-TAF:

METAR-TAF

Aeroports :

Àqaba, Jordània

latitud: 29-38N, longitud: 035-01E, altitud: 53 m

Observació

L'informe es va fer fa 3 hores i 43 minuts, a les 02:00 UTC
Vent 4 kt del Nord
Temperatura 17°C
Humitat 36%
Pressió 1015 hPa
Visibilitat 10 km o més
sense núvols per sota de 1500 mi sense presència de cumulonimbus.

METAR: OJAQ 300200Z 36004KT CAVOK 17/02 Q1015 NOSIG

Hora: 08:43 (05:43 UTC)

Pronòstic

L'informe es va fer fa 43 minuts, a les 05:00 UTC
Pronòstic vàlid del 30 a les 06 UTC al 31 a les 12 UTC
Vent 8 kt del Nord
Visibilitat 10 km o més
sense núvols per sota de 1500 mi sense presència de cumulonimbus.
Evolucionant progressivament
l' 30 a les 09 UTC al 30 a les 11 UTC
Vent 12 kt del Sud
Visibilitat: 7000 m
Núvols disperses a una alçada de 10000 ft

TAF: OJAQ 300500Z 3006/3112 35008KT CAVOK BECMG 3009/3011 18012KT 7000 SCT100

Observacions i pronòstics meteorològics de més de 4000 aeroports (METAR i TAF).

Les estacions disponibles són els punts grocs i vermells al mapa.

Posi el ratolí al punt desitjat per veure el nom de l'estació.

Feu clic per veure les observacions i els pronòstics meteorològics.

Per canviar el mapa: feu clic els botons verds amb una creu de color negre per apropar; al botó verd amb un guió per allunyar la imatge; o en les fletxes verdes per a mapes adjacents.


METAR-TAF: